createdAt,value
2023-04-24T00:02:08.019Z,208.40
2023-04-24T00:04:36.053Z,210.63
2023-04-24T00:07:03.912Z,213.70
2023-04-24T00:09:30.902Z,217.23
2023-04-24T00:11:58.386Z,215.40
2023-04-24T00:14:25.768Z,207.00
2023-04-24T00:16:53.116Z,215.23
2023-04-24T00:19:22.185Z,216.03
2023-04-24T00:21:52.713Z,209.80
2023-04-24T00:24:20.057Z,217.83
2023-04-24T00:26:47.065Z,210.47
2023-04-24T00:29:14.222Z,209.50
2023-04-24T00:31:41.388Z,216.83
2023-04-24T00:34:08.864Z,213.70
2023-04-24T00:36:36.303Z,213.90
2023-04-24T00:39:03.672Z,209.53
2023-04-24T00:41:31.440Z,208.57
2023-04-24T00:43:58.796Z,214.43
2023-04-24T00:46:26.295Z,210.10
2023-04-24T00:48:53.847Z,209.57
2023-04-24T00:51:22.047Z,209.57
2023-04-24T00:53:49.367Z,212.17
2023-04-24T00:56:16.758Z,210.43
2023-04-24T00:58:44.546Z,206.73
2023-04-24T01:01:12.640Z,213.83
2023-04-24T01:03:40.210Z,213.30
2023-04-24T01:06:08.172Z,212.27
2023-04-24T01:08:37.091Z,206.53
2023-04-24T01:11:05.954Z,208.03
2023-04-24T01:13:34.241Z,211.00
2023-04-24T01:16:02.285Z,211.30
2023-04-24T01:18:29.901Z,213.47
2023-04-24T01:21:01.150Z,213.17
2023-04-24T01:23:28.643Z,209.53
2023-04-24T01:25:56.096Z,211.13
2023-04-24T01:28:23.459Z,212.57
2023-04-24T01:30:50.920Z,211.43
2023-04-24T01:33:18.437Z,216.50
2023-04-24T01:35:45.904Z,206.70
2023-04-24T01:38:13.296Z,210.67
2023-04-24T01:40:40.705Z,207.10
2023-04-24T01:43:08.100Z,210.43
2023-04-24T01:45:35.499Z,211.73
2023-04-24T01:48:05.246Z,207.60
2023-04-24T01:50:32.928Z,215.07
2023-04-24T01:53:00.456Z,208.93
2023-04-24T01:55:28.372Z,208.33
2023-04-24T01:57:57.613Z,211.87
2023-04-24T02:00:25.977Z,208.60
2023-04-24T02:02:54.492Z,208.47
2023-04-24T02:05:21.662Z,205.00
2023-04-24T02:07:48.603Z,204.13
2023-04-24T02:10:16.015Z,209.20
2023-04-24T02:12:43.724Z,211.27
2023-04-24T02:15:11.484Z,208.80
2023-04-24T02:17:39.172Z,211.27
2023-04-24T02:20:08.330Z,200.20
2023-04-24T02:22:35.998Z,214.87
2023-04-24T02:25:03.816Z,207.40
2023-04-24T02:27:31.262Z,208.53
2023-04-24T02:29:58.643Z,210.77
2023-04-24T02:32:25.602Z,216.40
2023-04-24T02:34:52.700Z,219.97
2023-04-24T02:37:19.678Z,215.63
2023-04-24T02:39:46.677Z,212.10
2023-04-24T02:42:13.869Z,216.53
2023-04-24T02:44:41.857Z,215.93
2023-04-24T02:47:09.627Z,210.03
2023-04-24T02:49:36.631Z,222.50
2023-04-24T02:52:03.692Z,212.43
2023-04-24T02:54:30.737Z,216.77
2023-04-24T02:56:57.834Z,220.53
2023-04-24T02:59:24.956Z,209.90
2023-04-24T03:01:51.911Z,214.77
2023-04-24T03:04:21.405Z,214.73
2023-04-24T03:06:49.070Z,214.40
2023-04-24T03:09:16.149Z,213.50
2023-04-24T03:11:43.058Z,217.43
2023-04-24T03:14:10.113Z,216.20
2023-04-24T03:16:38.715Z,209.20
2023-04-24T03:19:07.503Z,217.27
2023-04-24T03:21:41.724Z,212.80
2023-04-24T03:24:11.860Z,216.67
2023-04-24T03:26:39.289Z,215.90
2023-04-24T03:29:19.920Z,217.00
2023-04-24T03:31:47.424Z,214.80
2023-04-24T03:34:14.483Z,211.20
2023-04-24T03:36:41.953Z,217.87
2023-04-24T03:39:09.574Z,213.77
2023-04-24T03:41:39.017Z,214.53
2023-04-24T03:44:16.536Z,209.87
2023-04-24T03:46:43.997Z,211.97
2023-04-24T03:49:11.203Z,210.83
2023-04-24T03:51:42.710Z,217.60
2023-04-24T03:54:18.576Z,210.53
2023-04-24T03:56:46.973Z,213.97
2023-04-24T03:59:14.484Z,211.80
2023-04-24T04:01:44.403Z,213.20
2023-04-24T04:04:18.158Z,212.93
2023-04-24T04:06:47.500Z,215.03
2023-04-24T04:09:14.937Z,212.33
2023-04-24T04:11:42.121Z,210.03
2023-04-24T04:14:09.114Z,211.53
2023-04-24T04:16:39.791Z,213.53
2023-04-24T04:19:07.539Z,212.50
2023-04-24T04:21:35.519Z,215.90
2023-04-24T04:24:11.289Z,215.33
2023-04-24T04:26:47.317Z,211.90
2023-04-24T04:29:21.381Z,215.70
2023-04-24T04:31:51.246Z,222.20
2023-04-24T04:34:18.350Z,217.60
2023-04-24T04:36:47.315Z,218.93
2023-04-24T04:39:27.078Z,218.37
2023-04-24T04:41:59.532Z,212.50
2023-04-24T04:44:33.697Z,218.80
2023-04-24T04:47:01.515Z,225.40
2023-04-24T04:49:35.624Z,218.60
2023-04-24T04:52:02.826Z,221.00
2023-04-24T04:54:29.878Z,221.37
2023-04-24T04:56:58.405Z,225.40
2023-04-24T04:59:25.881Z,221.40
2023-04-24T05:01:59.184Z,223.97
2023-04-24T05:04:26.558Z,220.20
2023-04-24T05:06:53.948Z,221.23
2023-04-24T05:09:23.548Z,223.80
2023-04-24T05:11:57.168Z,217.20
2023-04-24T05:14:25.683Z,219.80
2023-04-24T05:16:52.965Z,218.63
2023-04-24T05:19:22.057Z,218.30
2023-04-24T05:21:49.084Z,227.03
2023-04-24T05:24:16.335Z,222.80
2023-04-24T05:27:05.479Z,218.77
2023-04-24T05:29:38.397Z,227.60
2023-04-24T05:32:06.823Z,225.00
2023-04-24T05:34:34.172Z,220.20
2023-04-24T05:37:01.338Z,218.20
2023-04-24T05:39:28.415Z,227.23
2023-04-24T05:41:58.972Z,223.90
2023-04-24T05:44:26.728Z,224.80
2023-04-24T05:46:54.103Z,223.70
2023-04-24T05:49:21.141Z,225.83
2023-04-24T05:51:48.655Z,224.40
2023-04-24T05:54:16.868Z,233.83
2023-04-24T05:56:44.001Z,238.55
2023-04-24T05:59:14.730Z,226.73
2023-04-24T06:01:41.893Z,230.33
2023-04-24T06:04:17.161Z,229.67
2023-04-24T06:06:44.285Z,226.18
2023-04-24T06:09:11.387Z,222.87
2023-04-24T06:11:38.453Z,223.00
2023-04-24T06:14:06.702Z,229.43
2023-04-24T06:16:41.157Z,231.93
2023-04-24T06:19:28.532Z,231.27
2023-04-24T06:21:55.527Z,228.73
2023-04-24T06:24:22.518Z,233.88
2023-04-24T06:26:49.498Z,233.73
2023-04-24T06:29:16.458Z,234.95
2023-04-24T06:31:43.522Z,229.45
2023-04-24T06:34:11.159Z,232.00
2023-04-24T06:36:38.422Z,237.30
2023-04-24T06:39:05.794Z,231.63
2023-04-24T06:41:32.784Z,228.35
2023-04-24T06:43:59.720Z,236.90
2023-04-24T06:46:28.600Z,230.70
2023-04-24T06:48:58.848Z,242.93
2023-04-24T06:51:26.896Z,234.00
2023-04-24T06:53:54.804Z,232.80
2023-04-24T06:56:21.964Z,231.32
2023-04-24T06:58:49.234Z,232.48
2023-04-24T07:01:16.242Z,231.55
2023-04-24T07:03:43.440Z,228.35
2023-04-24T07:06:14.322Z,242.35
2023-04-24T07:08:42.872Z,233.70
2023-04-24T07:11:09.953Z,231.13
2023-04-24T07:13:36.858Z,236.10
2023-04-24T07:16:04.246Z,232.82
2023-04-24T07:18:31.312Z,232.35
2023-04-24T07:20:58.802Z,232.63
2023-04-24T07:23:25.932Z,242.80
2023-04-24T07:25:52.912Z,241.05
2023-04-24T07:28:19.895Z,236.85
2023-04-24T07:30:46.840Z,243.63
2023-04-24T07:33:14.379Z,247.45
2023-04-24T07:35:41.560Z,237.38
2023-04-24T07:38:08.534Z,233.93
2023-04-24T07:40:35.546Z,236.68
2023-04-24T07:43:02.617Z,236.07
2023-04-24T07:45:29.587Z,238.95
2023-04-24T07:47:56.932Z,233.93
2023-04-24T07:50:24.033Z,241.57
2023-04-24T07:52:51.238Z,234.20
2023-04-24T07:55:18.511Z,232.68
2023-04-24T07:57:46.446Z,234.93
2023-04-24T08:00:14.550Z,236.77
2023-04-24T08:02:41.733Z,238.07
2023-04-24T08:05:09.492Z,231.45
2023-04-24T08:07:36.746Z,234.93
2023-04-24T08:10:04.319Z,240.00
2023-04-24T08:12:31.727Z,237.52
2023-04-24T08:14:58.747Z,232.23
2023-04-24T08:17:26.518Z,233.48
2023-04-24T08:20:00.063Z,234.02
2023-04-24T08:22:27.430Z,234.13
2023-04-24T08:24:55.190Z,236.05
2023-04-24T08:27:22.143Z,239.48
2023-04-24T08:29:49.129Z,236.32
2023-04-24T08:32:16.226Z,233.63
2023-04-24T08:34:43.169Z,234.55
2023-04-24T08:37:10.534Z,234.82
2023-04-24T08:39:38.453Z,235.90
2023-04-24T08:42:09.042Z,236.82
2023-04-24T08:44:37.514Z,233.45
2023-04-24T08:47:05.062Z,240.27
2023-04-24T08:49:32.884Z,237.75
2023-04-24T08:52:01.281Z,237.05
2023-04-24T08:54:29.392Z,235.10
2023-04-24T08:57:02.307Z,233.30
2023-04-24T08:59:29.888Z,235.65
2023-04-24T09:01:57.730Z,239.45
2023-04-24T09:04:26.243Z,235.82
2023-04-24T09:06:58.744Z,234.52
2023-04-24T09:09:26.687Z,236.93
2023-04-24T09:11:57.133Z,232.82
2023-04-24T09:14:24.854Z,238.27
2023-04-24T09:16:52.244Z,240.82
2023-04-24T09:19:19.329Z,233.70
2023-04-24T09:21:49.635Z,227.20
2023-04-24T09:24:21.265Z,233.32
2023-04-24T09:26:48.299Z,235.25
2023-04-24T09:29:17.932Z,231.30
2023-04-24T09:31:46.808Z,230.43
2023-04-24T09:34:14.400Z,233.98
2023-04-24T09:36:44.042Z,232.32
2023-04-24T09:39:16.367Z,239.65
2023-04-24T09:41:54.049Z,240.27
2023-04-24T09:44:23.610Z,245.90
2023-04-24T09:46:55.679Z,242.60
2023-04-24T09:49:30.961Z,244.93
2023-04-24T09:52:10.300Z,244.00
2023-04-24T09:54:38.448Z,240.70
2023-04-24T09:57:06.046Z,240.20
2023-04-24T09:59:33.656Z,243.00
2023-04-24T10:02:01.613Z,250.15
2023-04-24T10:04:30.039Z,241.63
2023-04-24T10:06:58.569Z,246.13
2023-04-24T10:09:27.718Z,251.70
2023-04-24T10:11:56.048Z,249.23
2023-04-24T10:14:26.027Z,250.40
2023-04-24T10:16:55.883Z,262.38
2023-04-24T10:19:26.879Z,253.60
2023-04-24T10:21:55.676Z,254.00
2023-04-24T10:24:22.836Z,250.93
2023-04-24T10:26:50.351Z,258.85
2023-04-24T10:29:20.109Z,261.75
2023-04-24T10:31:48.011Z,260.35
2023-04-24T10:34:18.550Z,256.90
2023-04-24T10:36:53.903Z,255.85
2023-04-24T10:39:27.765Z,246.43
2023-04-24T10:41:58.491Z,246.57
2023-04-24T10:44:25.893Z,258.02
2023-04-24T10:46:57.238Z,248.38
2023-04-24T10:49:32.523Z,255.93
2023-04-24T10:52:07.605Z,253.85
2023-04-24T10:54:43.437Z,249.88
2023-04-24T10:57:25.638Z,257.75
2023-04-24T11:00:17.716Z,248.93
2023-04-24T11:02:53.903Z,236.48
2023-04-24T11:05:23.157Z,229.93
2023-04-24T11:08:24.727Z,237.32
2023-04-24T11:11:05.281Z,253.82
2023-04-24T11:13:57.569Z,251.45
2023-04-24T11:16:24.668Z,262.42
2023-04-24T11:19:01.787Z,252.15
2023-04-24T11:22:02.638Z,261.13
2023-04-24T11:24:47.877Z,259.50
2023-04-24T11:27:23.262Z,256.85
2023-04-24T11:29:57.517Z,259.88
2023-04-24T11:32:43.475Z,255.23
2023-04-24T11:35:28.824Z,251.25
2023-04-24T11:40:26.912Z,253.05
2023-04-24T11:42:57.703Z,250.20
2023-04-24T11:45:31.529Z,254.40
2023-04-24T11:48:00.002Z,261.55
2023-04-24T11:50:29.697Z,256.92
2023-04-24T11:52:57.487Z,254.95
2023-04-24T11:55:27.980Z,255.60
2023-04-24T11:58:00.983Z,248.20
2023-04-24T12:00:35.282Z,256.05
2023-04-24T12:03:13.504Z,255.65
2023-04-24T12:05:41.452Z,253.50
2023-04-24T12:08:08.813Z,256.60
2023-04-24T12:10:36.827Z,253.70
2023-04-24T12:13:04.265Z,253.75
2023-04-24T12:15:31.538Z,253.40
2023-04-24T12:17:59.888Z,253.13
2023-04-24T12:20:30.292Z,254.65
2023-04-24T12:22:59.996Z,259.55
2023-04-24T12:25:29.630Z,251.45
2023-04-24T12:28:12.244Z,260.13
2023-04-24T12:30:49.198Z,256.95
2023-04-24T12:33:20.928Z,253.93
2023-04-24T12:35:52.192Z,278.38
2023-04-24T12:38:27.635Z,252.13
2023-04-24T12:41:06.434Z,269.50
2023-04-24T12:43:33.896Z,280.40
2023-04-24T12:46:00.959Z,273.10
2023-04-24T12:48:29.402Z,255.85
2023-04-24T12:51:01.647Z,243.27
2023-04-24T12:53:30.768Z,250.82
2023-04-24T12:55:58.150Z,267.33
2023-04-24T12:58:25.664Z,252.82
2023-04-24T13:00:53.224Z,249.15
2023-04-24T13:03:20.818Z,241.77
2023-04-24T13:05:48.017Z,247.63
2023-04-24T13:08:15.092Z,243.43
2023-04-24T13:10:42.261Z,249.18
2023-04-24T13:13:09.899Z,245.07
2023-04-24T13:15:36.877Z,244.70
2023-04-24T13:18:04.021Z,253.02
2023-04-24T13:20:31.259Z,240.23
2023-04-24T13:22:58.240Z,245.30
2023-04-24T13:25:25.959Z,247.35
2023-04-24T13:27:52.964Z,242.90
2023-04-24T13:30:20.008Z,238.43
2023-04-24T13:32:47.097Z,239.13
2023-04-24T13:35:14.151Z,244.88
2023-04-24T13:37:41.256Z,248.13
2023-04-24T13:40:09.252Z,244.75
2023-04-24T13:42:36.216Z,245.13
2023-04-24T13:45:17.420Z,242.25
2023-04-24T13:47:52.332Z,248.35
2023-04-24T13:50:19.734Z,246.88
2023-04-24T13:52:46.860Z,249.00
2023-04-24T13:55:13.895Z,247.60
2023-04-24T13:57:41.239Z,246.52
2023-04-24T14:00:11.522Z,247.80
2023-04-24T14:02:38.908Z,247.20
2023-04-24T14:05:07.548Z,250.25
2023-04-24T14:07:34.572Z,259.42
2023-04-24T14:10:01.630Z,257.73
2023-04-24T14:12:28.942Z,251.30
2023-04-24T14:14:55.976Z,252.93
2023-04-24T14:17:23.108Z,250.13
2023-04-24T14:19:50.075Z,254.10
2023-04-24T14:22:17.648Z,254.07
2023-04-24T14:24:44.768Z,251.45
2023-04-24T14:27:11.772Z,250.35
2023-04-24T14:29:38.694Z,252.98
2023-04-24T14:32:05.775Z,256.88
2023-04-24T14:34:32.802Z,247.98
2023-04-24T14:37:00.017Z,249.25
2023-04-24T14:39:27.026Z,247.15
2023-04-24T14:41:54.177Z,245.30
2023-04-24T14:44:21.157Z,244.77
2023-04-24T14:46:49.557Z,252.20
2023-04-24T14:49:16.654Z,254.45
2023-04-24T14:51:44.462Z,275.00
2023-04-24T14:54:11.625Z,260.65
2023-04-24T14:56:40.510Z,254.43
2023-04-24T14:59:08.249Z,258.02
2023-04-24T15:01:35.348Z,253.57
2023-04-24T15:04:02.528Z,254.15
2023-04-24T15:06:32.455Z,256.50
2023-04-24T15:08:59.552Z,250.00
2023-04-24T15:11:27.055Z,256.90
2023-04-24T15:13:54.112Z,254.23
2023-04-24T15:16:21.515Z,254.10
2023-04-24T15:18:48.523Z,255.57
2023-04-24T15:21:15.549Z,245.43
2023-04-24T15:23:42.521Z,251.98
2023-04-24T15:26:09.482Z,247.18
2023-04-24T15:28:36.415Z,249.80
2023-04-24T15:31:03.531Z,253.13
2023-04-24T15:33:30.642Z,250.30
2023-04-24T15:35:57.839Z,253.88
2023-04-24T15:38:24.794Z,260.80
2023-04-24T15:40:52.023Z,252.68
2023-04-24T15:43:18.974Z,252.65
2023-04-24T15:45:46.103Z,278.38
2023-04-24T15:48:13.358Z,244.77
2023-04-24T15:50:40.411Z,255.50
2023-04-24T15:53:07.519Z,250.55
2023-04-24T15:55:35.410Z,234.55
2023-04-24T15:58:02.384Z,249.65
2023-04-24T16:00:34.147Z,254.20
2023-04-24T16:03:02.397Z,254.38
2023-04-24T16:05:29.740Z,261.08
2023-04-24T16:07:57.365Z,257.15
2023-04-24T16:10:24.320Z,245.38
2023-04-24T16:12:54.632Z,253.27
2023-04-24T16:15:22.172Z,256.08
2023-04-24T16:17:50.724Z,261.40
2023-04-24T16:20:17.788Z,241.77
2023-04-24T16:22:44.787Z,246.95
2023-04-24T16:25:12.050Z,249.80
2023-04-24T16:27:39.239Z,253.43
2023-04-24T16:30:07.277Z,247.07
2023-04-24T16:32:34.354Z,246.68
2023-04-24T16:35:01.364Z,262.90
2023-04-24T16:37:30.649Z,258.67
2023-04-24T16:39:57.703Z,254.23
2023-04-24T16:42:24.662Z,254.68
2023-04-24T16:44:51.608Z,265.10
2023-04-24T16:47:19.275Z,256.08
2023-04-24T16:49:46.314Z,255.05
2023-04-24T16:52:13.496Z,255.13
2023-04-24T16:54:40.490Z,255.20
2023-04-24T16:57:08.033Z,255.57
2023-04-24T16:59:35.340Z,253.35
2023-04-24T17:02:03.545Z,259.70
2023-04-24T17:04:32.295Z,251.52
2023-04-24T17:06:59.377Z,248.70
2023-04-24T17:09:26.463Z,248.45
2023-04-24T17:11:53.456Z,250.13
2023-04-24T17:14:20.538Z,250.13
2023-04-24T17:16:47.733Z,255.30
2023-04-24T17:19:14.733Z,259.80
2023-04-24T17:21:41.747Z,267.80
2023-04-24T17:24:08.697Z,254.18
2023-04-24T17:26:35.757Z,254.20
2023-04-24T17:29:03.529Z,253.45
2023-04-24T17:31:30.617Z,256.80
2023-04-24T17:33:57.916Z,257.23
2023-04-24T17:36:24.881Z,255.45
2023-04-24T17:38:51.857Z,251.85
2023-04-24T17:41:18.844Z,258.35
2023-04-24T17:43:46.011Z,260.90
2023-04-24T17:46:13.487Z,241.63
2023-04-24T17:48:40.685Z,247.80
2023-04-24T17:51:08.230Z,241.45
2023-04-24T17:53:35.282Z,239.40
2023-04-24T17:56:03.868Z,244.23
2023-04-24T17:58:31.440Z,249.18
2023-04-24T18:00:58.437Z,241.40
2023-04-24T18:03:25.651Z,243.55
2023-04-24T18:05:52.829Z,244.95
2023-04-24T18:08:19.911Z,249.55
2023-04-24T18:10:47.214Z,241.65
2023-04-24T18:13:14.357Z,261.90
2023-04-24T18:15:43.282Z,250.63
2023-04-24T18:18:11.648Z,246.93
2023-04-24T18:20:39.424Z,253.82
2023-04-24T18:23:06.621Z,259.20
2023-04-24T18:25:33.752Z,251.88
2023-04-24T18:28:00.875Z,255.88
2023-04-24T18:30:31.018Z,271.05
2023-04-24T18:32:58.115Z,257.08
2023-04-24T18:35:25.126Z,260.20
2023-04-24T18:37:52.566Z,255.10
2023-04-24T18:40:19.599Z,260.55
2023-04-24T18:42:46.708Z,254.98
2023-04-24T18:45:15.211Z,244.98
2023-04-24T18:47:43.657Z,244.20
2023-04-24T18:50:11.909Z,304.35
2023-04-24T18:52:39.209Z,244.40
2023-04-24T18:55:07.057Z,238.95
2023-04-24T18:57:34.408Z,242.25
2023-04-24T19:00:01.519Z,235.32
2023-04-24T19:02:28.683Z,245.68
2023-04-24T19:04:55.730Z,237.68
2023-04-24T19:07:22.803Z,237.20
2023-04-24T19:09:49.793Z,239.32
2023-04-24T19:12:17.098Z,238.40
2023-04-24T19:14:46.018Z,235.45
2023-04-24T19:17:13.016Z,235.43
2023-04-24T19:19:39.963Z,222.35
2023-04-24T19:22:07.779Z,230.23
2023-04-24T19:24:34.957Z,281.00
2023-04-24T19:27:02.320Z,258.48
2023-04-24T19:29:29.281Z,403.35
2023-04-24T19:31:58.504Z,488.17
2023-04-24T19:34:26.382Z,255.88
2023-04-24T19:36:53.643Z,298.08
2023-04-24T19:39:20.727Z,226.48
2023-04-24T19:41:47.784Z,224.07
2023-04-24T19:44:15.673Z,387.55
2023-04-24T19:46:43.528Z,406.83
2023-04-24T19:49:10.821Z,348.83
2023-04-24T19:51:38.593Z,237.13
2023-04-24T19:54:06.322Z,235.00
2023-04-24T19:56:33.704Z,232.52
2023-04-24T19:59:01.089Z,237.13
2023-04-24T20:01:28.250Z,249.02
2023-04-24T20:03:55.733Z,239.80
2023-04-24T20:06:22.955Z,242.63
2023-04-24T20:08:50.229Z,243.43
2023-04-24T20:11:17.524Z,262.58
2023-04-24T20:13:44.506Z,249.32
2023-04-24T20:16:11.799Z,392.20
2023-04-24T20:18:39.066Z,384.65
2023-04-24T20:21:05.988Z,236.82
2023-04-24T20:23:32.983Z,351.63
2023-04-24T20:26:01.008Z,406.85
2023-04-24T20:28:30.278Z,242.20
2023-04-24T20:30:59.021Z,304.55
2023-04-24T20:33:28.021Z,328.85
2023-04-24T20:35:55.609Z,299.23
2023-04-24T20:38:22.875Z,329.20
2023-04-24T20:40:57.707Z,313.88
2023-04-24T20:43:29.597Z,322.83
2023-04-24T20:45:58.143Z,321.33
2023-04-24T20:48:26.514Z,330.27
2023-04-24T20:50:54.008Z,319.02
2023-04-24T20:53:21.560Z,235.82
2023-04-24T20:55:48.958Z,267.17
2023-04-24T20:58:18.558Z,347.08
2023-04-24T21:00:46.905Z,255.10
2023-04-24T21:03:14.146Z,259.45
2023-04-24T21:05:41.432Z,262.77
2023-04-24T21:08:08.412Z,267.02
2023-04-24T21:10:35.540Z,327.15
2023-04-24T21:13:02.489Z,229.05
2023-04-24T21:15:30.720Z,286.33
2023-04-24T21:17:57.727Z,283.10
2023-04-24T21:20:25.248Z,284.35
2023-04-24T21:22:52.186Z,268.45
2023-04-24T21:25:19.255Z,291.88
2023-04-24T21:27:46.407Z,345.00
2023-04-24T21:30:13.649Z,282.83
2023-04-24T21:32:40.893Z,337.48
2023-04-24T21:35:08.446Z,304.48
2023-04-24T21:37:36.791Z,306.33
2023-04-24T21:40:04.901Z,316.08
2023-04-24T21:42:32.244Z,219.23
2023-04-24T21:44:59.246Z,226.73
2023-04-24T21:47:26.400Z,295.48
2023-04-24T21:49:53.432Z,331.73
2023-04-24T21:52:20.407Z,300.42
2023-04-24T21:54:47.534Z,276.73
2023-04-24T21:57:14.617Z,309.85
2023-04-24T21:59:41.995Z,281.67
2023-04-24T22:02:09.093Z,225.47
2023-04-24T22:04:36.248Z,274.67
2023-04-24T22:07:03.321Z,308.13
2023-04-24T22:09:30.482Z,289.23
2023-04-24T22:11:57.607Z,280.90
2023-04-24T22:14:24.593Z,301.00
2023-04-24T22:16:51.495Z,226.70
2023-04-24T22:19:18.447Z,223.20
2023-04-24T22:21:45.790Z,224.10
2023-04-24T22:24:12.803Z,257.23
2023-04-24T22:26:40.217Z,240.57
2023-04-24T22:29:07.111Z,243.15
2023-04-24T22:31:34.724Z,291.08
2023-04-24T22:34:01.899Z,309.17
2023-04-24T22:36:28.830Z,243.95
2023-04-24T22:38:55.807Z,278.25
2023-04-24T22:41:23.344Z,262.60
2023-04-24T22:43:50.821Z,224.50
2023-04-24T22:46:18.104Z,224.77
2023-04-24T22:48:45.767Z,224.25
2023-04-24T22:51:12.779Z,276.63
2023-04-24T22:53:39.755Z,227.63
2023-04-24T22:56:07.262Z,258.25
2023-04-24T22:58:34.263Z,267.45
2023-04-24T23:01:01.418Z,246.10
2023-04-24T23:03:28.631Z,269.45
2023-04-24T23:05:55.842Z,276.17
2023-04-24T23:08:22.878Z,256.77
2023-04-24T23:10:49.854Z,309.20
2023-04-24T23:13:17.248Z,276.63
2023-04-24T23:15:44.244Z,282.00
2023-04-24T23:18:11.610Z,256.17
2023-04-24T23:20:39.012Z,275.30
2023-04-24T23:23:05.990Z,326.67
2023-04-24T23:25:33.189Z,302.95
2023-04-24T23:28:00.116Z,259.85
2023-04-24T23:30:27.254Z,281.80
2023-04-24T23:32:54.272Z,258.73
2023-04-24T23:35:21.341Z,293.17
2023-04-24T23:37:48.309Z,265.75
2023-04-24T23:40:15.315Z,280.40
2023-04-24T23:42:42.272Z,283.55
2023-04-24T23:45:10.910Z,273.63
2023-04-24T23:47:38.254Z,250.00
2023-04-24T23:50:06.073Z,272.35
2023-04-24T23:52:35.316Z,294.02
2023-04-24T23:55:04.740Z,288.15
2023-04-24T23:57:32.218Z,265.85
2023-04-24T23:59:59.175Z,235.55
